createdAt,value
2023-07-21T00:00:01.070Z,0.0
2023-07-21T00:05:00.586Z,0.0
2023-07-21T00:10:00.683Z,0.0
2023-07-21T00:15:01.135Z,0.0
2023-07-21T00:20:03.363Z,0.0
2023-07-21T00:25:00.589Z,0.0
2023-07-21T00:30:00.895Z,0.0
2023-07-21T00:35:02.696Z,0.0
2023-07-21T00:40:01.079Z,0.0
2023-07-21T00:45:00.914Z,0.0
2023-07-21T00:50:01.375Z,0.0
2023-07-21T00:55:00.834Z,0.0
2023-07-21T01:00:00.850Z,0.0
2023-07-21T01:05:00.734Z,0.0
2023-07-21T01:10:01.601Z,0.0
2023-07-21T01:15:06.622Z,0.0
2023-07-21T01:20:02.085Z,1096.7
2023-07-21T01:25:10.777Z,1096.7
2023-07-21T01:30:01.082Z,1312.3
2023-07-21T01:35:01.945Z,1096.7
2023-07-21T01:40:01.539Z,1312.3
2023-07-21T01:45:01.277Z,1312.3
2023-07-21T01:50:01.820Z,1096.7
2023-07-21T01:55:08.569Z,1096.7
2023-07-21T02:00:02.046Z,2193.5
2023-07-21T02:05:01.321Z,2193.5
2023-07-21T02:10:00.612Z,2193.5
2023-07-21T02:15:00.970Z,2193.5
2023-07-21T02:20:00.948Z,2193.5
2023-07-21T02:25:01.061Z,2193.5
2023-07-21T02:30:01.158Z,3290.2
2023-07-21T02:35:00.853Z,3290.2
2023-07-21T02:40:00.897Z,3505.7
2023-07-21T02:45:00.693Z,3505.7
2023-07-21T02:50:01.023Z,3290.2
2023-07-21T02:55:00.901Z,3290.2
2023-07-21T03:00:01.019Z,3290.2
2023-07-21T03:05:01.701Z,2802.1
2023-07-21T03:10:01.216Z,2802.1
2023-07-21T03:15:00.669Z,3898.8
2023-07-21T03:20:00.566Z,6580.4
2023-07-21T03:25:00.706Z,7189.0
2023-07-21T03:30:01.228Z,7892.7
2023-07-21T03:35:00.712Z,7189.0
2023-07-21T03:40:01.491Z,9870.6
2023-07-21T03:45:01.803Z,11182.9
2023-07-21T03:50:01.113Z,9382.5
2023-07-21T03:55:01.021Z,10086.1
2023-07-21T04:00:00.576Z,9382.5
2023-07-21T04:05:00.836Z,10086.1
2023-07-21T04:10:00.656Z,11182.9
2023-07-21T04:15:00.872Z,11575.9
2023-07-21T04:20:00.639Z,11182.9
2023-07-21T04:25:00.756Z,10479.2
2023-07-21T04:30:00.902Z,12279.6
2023-07-21T04:35:02.216Z,12672.7
2023-07-21T04:40:00.984Z,14866.1
2023-07-21T04:45:00.743Z,15962.9
2023-07-21T04:50:01.079Z,17059.6
2023-07-21T04:55:00.620Z,18156.3
2023-07-21T05:00:01.626Z,20349.8
2023-07-21T05:05:00.618Z,22543.3
2023-07-21T05:10:01.138Z,22055.1
2023-07-21T05:15:00.621Z,21231.0
2023-07-21T05:20:01.222Z,20742.8
2023-07-21T05:25:00.822Z,19430.6
2023-07-21T05:30:00.964Z,22327.7
2023-07-21T05:35:00.644Z,22936.3
2023-07-21T05:40:00.765Z,24248.6
2023-07-21T05:45:00.883Z,24248.6
2023-07-21T05:50:00.690Z,23151.9
2023-07-21T05:55:00.650Z,22327.7
2023-07-21T06:00:01.269Z,24952.3
2023-07-21T06:05:00.673Z,22936.3
2023-07-21T06:10:00.898Z,24736.7
2023-07-21T06:15:00.593Z,22936.3
2023-07-21T06:20:01.734Z,24736.7
2023-07-21T06:25:00.586Z,24736.7
2023-07-21T06:30:00.791Z,22936.3
2023-07-21T06:35:00.631Z,25129.8
2023-07-21T06:40:00.963Z,21839.6
2023-07-21T06:45:00.908Z,18118.3
2023-07-21T06:50:00.702Z,20527.3
2023-07-21T06:55:01.075Z,20527.3
2023-07-21T07:00:00.610Z,19823.6
2023-07-21T07:05:00.923Z,18726.9
2023-07-21T07:10:00.762Z,17630.1
2023-07-21T07:15:00.706Z,17630.1
2023-07-21T07:20:00.621Z,19215.0
2023-07-21T07:25:03.733Z,19215.0
2023-07-21T07:30:00.629Z,19823.6
2023-07-21T07:35:00.699Z,23602.0
2023-07-21T07:40:00.856Z,24914.2
2023-07-21T07:45:00.719Z,26011.0
2023-07-21T07:50:00.689Z,28813.0
2023-07-21T07:55:00.673Z,28420.0
2023-07-21T08:00:00.652Z,31710.2
2023-07-21T08:05:00.793Z,34334.7
2023-07-21T08:10:00.640Z,29732.3
2023-07-21T08:15:00.702Z,28420.0
2023-07-21T08:20:00.612Z,26011.0
2023-07-21T08:25:00.717Z,23113.8
2023-07-21T08:30:00.612Z,46614.3
2023-07-21T08:35:00.822Z,41523.7
2023-07-21T08:40:00.930Z,38626.6
2023-07-21T08:45:04.293Z,41308.2
2023-07-21T08:50:01.105Z,43013.5
2023-07-21T08:55:00.777Z,51394.3
2023-07-21T09:00:00.637Z,59071.5
2023-07-21T09:05:00.855Z,64960.9
2023-07-21T09:10:00.579Z,64377.6
2023-07-21T09:15:07.013Z,67002.2
2023-07-21T09:20:03.955Z,71604.7
2023-07-21T09:25:00.953Z,77088.3
2023-07-21T09:30:02.998Z,80378.5
2023-07-21T09:35:02.184Z,86565.9
2023-07-21T09:40:03.117Z,88271.2
2023-07-21T09:45:00.885Z,92873.7
2023-07-21T09:50:00.694Z,97260.6
2023-07-21T09:55:06.833Z,105368.8
2023-07-21T10:00:02.692Z,112164.8
2023-07-21T10:05:01.193Z,117470.9
2023-07-21T10:10:02.078Z,130669.8
2023-07-21T10:15:00.660Z,92265.1
2023-07-21T10:20:07.257Z,31317.1
2023-07-21T10:25:00.758Z,39818.4
2023-07-21T10:30:19.448Z,30220.4
2023-07-21T10:35:00.680Z,36097.1
2023-07-21T10:40:06.605Z,150176.4
2023-07-21T10:45:07.728Z,155875.6
2023-07-21T10:50:01.012Z,79808.0
2023-07-21T10:55:00.703Z,30829.0
2023-07-21T11:00:00.686Z,38328.6
2023-07-21T11:05:00.743Z,35038.4
2023-07-21T11:10:00.602Z,45124.6
2023-07-21T11:15:00.742Z,22758.8
2023-07-21T11:20:05.463Z,13769.4
2023-07-21T11:25:08.846Z,14473.1
2023-07-21T11:30:01.446Z,18371.9
2023-07-21T11:35:01.360Z,41618.8
2023-07-21T11:40:05.697Z,103448.0
2023-07-21T11:45:00.842Z,130669.8
2023-07-21T11:50:00.688Z,76441.7
2023-07-21T11:55:00.769Z,134099.4
2023-07-21T12:00:00.610Z,182805.8
2023-07-21T12:05:00.742Z,184390.7
2023-07-21T12:10:01.177Z,187503.4
2023-07-21T12:15:00.679Z,188993.2
2023-07-21T12:20:00.847Z,192105.9
2023-07-21T12:25:00.668Z,194026.8
2023-07-21T12:30:02.203Z,197627.6
2023-07-21T12:35:00.676Z,201171.4
2023-07-21T12:40:00.864Z,35000.4
2023-07-21T12:45:00.627Z,200467.7
2023-07-21T12:50:00.659Z,208182.8
2023-07-21T12:55:00.655Z,204499.6
2023-07-21T13:00:00.636Z,212392.3
2023-07-21T13:05:00.936Z,198274.2
2023-07-21T13:10:00.825Z,40306.5
2023-07-21T13:15:00.972Z,37193.8
2023-07-21T13:20:00.614Z,209064.0
2023-07-21T13:25:00.887Z,196568.9
2023-07-21T13:30:00.617Z,196784.4
2023-07-21T13:35:01.172Z,204499.6
2023-07-21T13:40:00.768Z,202306.1
2023-07-21T13:45:00.677Z,107441.8
2023-07-21T13:50:00.938Z,198312.2
2023-07-21T13:55:00.692Z,184504.8
2023-07-21T14:00:00.866Z,180821.6
2023-07-21T14:05:00.664Z,177924.4
2023-07-21T14:10:00.871Z,177043.2
2023-07-21T14:15:00.718Z,174241.2
2023-07-21T14:20:01.324Z,172263.2
2023-07-21T14:25:00.882Z,100195.8
2023-07-21T14:30:00.682Z,169404.1
2023-07-21T14:35:00.670Z,79237.4
2023-07-21T14:40:00.655Z,19253.1
2023-07-21T14:45:00.623Z,163210.4
2023-07-21T14:50:01.192Z,102325.9
2023-07-21T14:55:00.836Z,52839.7
2023-07-21T15:00:00.693Z,147780.1
2023-07-21T15:05:00.659Z,39425.4
2023-07-21T15:10:00.608Z,137300.9
2023-07-21T15:15:00.969Z,98642.6
2023-07-21T15:20:00.629Z,24343.7
2023-07-21T15:25:00.759Z,125059.3
2023-07-21T15:30:00.824Z,123747.0
2023-07-21T15:35:00.645Z,117128.6
2023-07-21T15:40:01.147Z,110332.7
2023-07-21T15:45:00.681Z,102440.0
2023-07-21T15:50:08.540Z,97133.8
2023-07-21T15:55:00.623Z,91865.7
2023-07-21T16:00:00.722Z,74945.6
2023-07-21T16:05:00.954Z,23462.5
2023-07-21T16:10:01.414Z,71205.3
2023-07-21T16:15:01.120Z,67699.5
2023-07-21T16:20:01.049Z,27221.8
2023-07-21T16:25:00.909Z,14473.1
2023-07-21T16:30:00.970Z,11791.5
2023-07-21T16:35:00.648Z,27259.9
2023-07-21T16:40:00.866Z,45511.3
2023-07-21T16:45:00.968Z,39381.0
2023-07-21T16:50:00.868Z,30353.5
2023-07-21T16:55:00.688Z,8773.9
2023-07-21T17:00:01.244Z,5876.7
2023-07-21T17:05:01.285Z,5876.7
2023-07-21T17:10:00.689Z,8539.3
2023-07-21T17:15:00.818Z,12298.6
2023-07-21T17:20:00.669Z,5483.7
2023-07-21T17:25:00.726Z,4386.9
2023-07-21T17:30:00.614Z,3290.2
2023-07-21T17:35:00.748Z,3290.2
2023-07-21T17:40:00.687Z,2409.0
2023-07-21T17:45:00.942Z,2193.5
2023-07-21T17:50:00.603Z,1096.7
2023-07-21T17:55:00.923Z,1312.3
2023-07-21T18:00:01.030Z,1096.7
2023-07-21T18:05:01.116Z,1096.7
2023-07-21T18:10:00.794Z,0.0
2023-07-21T18:15:00.907Z,0.0
2023-07-21T18:20:00.882Z,0.0
2023-07-21T18:25:01.065Z,0.0
2023-07-21T18:30:00.589Z,0.0
2023-07-21T18:35:01.821Z,0.0
2023-07-21T18:40:02.755Z,0.0
2023-07-21T18:45:00.914Z,0.0
2023-07-21T18:50:00.775Z,0.0
2023-07-21T18:55:02.798Z,0.0
2023-07-21T19:00:00.553Z,0.0
2023-07-21T19:05:00.731Z,0.0
2023-07-21T19:10:02.540Z,0.0
2023-07-21T19:15:00.940Z,0.0
2023-07-21T19:20:00.652Z,0.0
2023-07-21T19:25:01.014Z,0.0
2023-07-21T19:30:00.996Z,0.0
2023-07-21T19:35:00.653Z,0.0
2023-07-21T19:40:00.670Z,0.0
2023-07-21T19:45:00.754Z,0.0
2023-07-21T19:50:00.582Z,0.0
2023-07-21T19:55:00.696Z,0.0
2023-07-21T20:00:00.993Z,0.0
2023-07-21T20:05:17.739Z,0.0
2023-07-21T20:10:00.837Z,0.0
2023-07-21T20:15:01.096Z,0.0
2023-07-21T20:20:00.618Z,0.0
2023-07-21T20:25:01.107Z,0.0
2023-07-21T20:30:00.766Z,0.0
2023-07-21T20:35:00.929Z,0.0
2023-07-21T20:40:00.679Z,0.0
2023-07-21T20:45:00.691Z,0.0
2023-07-21T20:50:00.660Z,0.0
2023-07-21T20:55:00.697Z,0.0
2023-07-21T21:00:00.866Z,0.0
2023-07-21T21:05:00.989Z,0.0
2023-07-21T21:10:00.709Z,0.0
2023-07-21T21:15:01.700Z,0.0
2023-07-21T21:20:00.724Z,0.0
2023-07-21T21:25:00.751Z,0.0
2023-07-21T21:30:00.896Z,0.0
2023-07-21T21:35:00.657Z,0.0
2023-07-21T21:40:00.633Z,0.0
2023-07-21T21:45:00.949Z,0.0
2023-07-21T21:50:00.815Z,0.0
2023-07-21T21:55:00.679Z,0.0
2023-07-21T22:00:00.555Z,0.0
2023-07-21T22:05:00.705Z,0.0
2023-07-21T22:10:00.894Z,0.0
2023-07-21T22:15:00.677Z,0.0
2023-07-21T22:20:10.481Z,0.0
2023-07-21T22:25:00.629Z,0.0
2023-07-21T22:30:00.610Z,0.0
2023-07-21T22:35:01.057Z,0.0
2023-07-21T22:40:00.611Z,0.0
2023-07-21T22:45:00.880Z,0.0
2023-07-21T22:50:01.041Z,0.0
2023-07-21T22:55:00.906Z,0.0
2023-07-21T23:00:00.697Z,0.0
2023-07-21T23:05:00.866Z,0.0
2023-07-21T23:10:00.614Z,0.0
2023-07-21T23:15:00.770Z,0.0
2023-07-21T23:20:00.634Z,0.0
2023-07-21T23:25:00.811Z,0.0
2023-07-21T23:30:00.761Z,0.0
2023-07-21T23:35:00.709Z,0.0
2023-07-21T23:40:01.138Z,0.0
2023-07-21T23:45:00.797Z,0.0
2023-07-21T23:50:00.685Z,0.0
2023-07-21T23:55:00.645Z,0.0
